Time;durP1;ratioP1;P1;durP2;ratioP2;P2;SDS_P1;SDS_P2;PMS_P1;PMS_P2;Temp;Humidity;BMP_temperature;BMP_pressure;BME280_temperature;BME280_humidity;BME280_pressure;Samples;Min_cycle;Max_cycle;Signal;HPM_P1;HPM_P2
2023/07/29 00:01:13;;;;;;;14.13;4.90;;;24.60;87.60;;;;;;5090644;28;20059;-70
2023/07/29 00:04:17;;;;;;;15.98;4.75;;;24.70;87.50;;;;;;5091029;28;20047;-70
2023/07/29 00:07:21;;;;;;;10.98;4.88;;;24.80;87.10;;;;;;5090685;28;20047;-70
2023/07/29 00:10:25;;;;;;;13.45;4.47;;;24.70;87.30;;;;;;5090868;28;20051;-70
2023/07/29 00:13:29;;;;;;;13.10;5.32;;;24.60;87.60;;;;;;5090783;28;20043;-70
2023/07/29 00:16:33;;;;;;;10.85;4.47;;;24.60;87.70;;;;;;5090693;28;20395;-70
2023/07/29 00:19:37;;;;;;;13.95;4.85;;;24.50;87.80;;;;;;5090337;28;20225;-70
2023/07/29 00:22:41;;;;;;;13.45;4.22;;;24.60;87.90;;;;;;5091028;28;20051;-70
2023/07/29 00:25:45;;;;;;;11.35;4.32;;;24.50;87.90;;;;;;5090344;28;20126;-70
2023/07/29 00:28:49;;;;;;;12.48;4.20;;;24.50;88.00;;;;;;5092586;28;20055;-70
2023/07/29 00:31:53;;;;;;;9.60;4.45;;;24.40;87.90;;;;;;5094826;28;20054;-70
2023/07/29 00:35:00;;;;;;;11.90;4.35;;;24.40;88.10;;;;;;5094554;28;20047;-70
2023/07/29 00:38:04;;;;;;;10.52;4.13;;;24.30;88.30;;;;;;5093841;28;20047;-70
2023/07/29 00:41:08;;;;;;;11.95;4.35;;;24.30;88.50;;;;;;5093429;28;20051;-70
2023/07/29 00:44:12;;;;;;;13.98;4.88;;;24.40;88.60;;;;;;5093305;28;20039;-70
2023/07/29 00:47:16;;;;;;;9.00;4.18;;;24.30;88.30;;;;;;5094486;28;20047;-70
2023/07/29 00:50:21;;;;;;;10.63;4.00;;;24.20;88.50;;;;;;5093402;28;20043;-70
2023/07/29 00:53:24;;;;;;;9.50;4.10;;;24.20;89.00;;;;;;5093233;28;20062;-70
2023/07/29 00:56:28;;;;;;;10.75;4.25;;;24.10;88.70;;;;;;5094654;28;20039;-70
2023/07/29 00:59:34;;;;;;;14.88;5.18;;;24.10;88.90;;;;;;5093080;28;20403;-70
2023/07/29 01:02:39;;;;;;;14.60;4.35;;;24.10;88.70;;;;;;5094079;28;20051;-70
2023/07/29 01:06:07;;;;;;;11.18;5.15;;;24.10;89.20;;;;;;5094166;28;20043;-70
2023/07/29 01:09:25;;;;;;;16.98;5.05;;;24.10;88.70;;;;;;5073757;28;20043;-70
2023/07/29 01:12:55;;;;;;;10.18;5.00;;;24.20;88.70;;;;;;5093581;28;20047;-70
2023/07/29 01:16:39;;;;;;;13.15;4.22;;;24.20;88.50;;;;;;5093599;28;20047;-70
2023/07/29 01:20:08;;;;;;;17.00;4.65;;;24.10;88.40;;;;;;5092767;28;20043;-70
2023/07/29 01:23:11;;;;;;;11.88;4.43;;;24.10;88.60;;;;;;5093005;28;20524;-70
2023/07/29 01:26:15;;;;;;;8.38;4.03;;;24.00;88.60;;;;;;5093049;28;20063;-70
2023/07/29 01:29:19;;;;;;;11.27;3.97;;;24.00;88.30;;;;;;5092694;28;20063;-70
2023/07/29 01:32:36;;;;;;;8.57;3.10;;;24.00;88.10;;;;;;5093666;28;20277;-70
2023/07/29 01:35:44;;;;;;;10.05;3.50;;;24.10;88.00;;;;;;5093917;28;20050;-70
2023/07/29 01:38:50;;;;;;;8.38;3.20;;;24.10;87.50;;;;;;5093581;28;20059;-70
2023/07/29 01:41:54;;;;;;;7.60;3.72;;;24.10;87.60;;;;;;5092746;28;20534;-70
2023/07/29 01:44:58;;;;;;;8.90;3.28;;;24.10;86.60;;;;;;5093248;28;20066;-70
2023/07/29 01:48:07;;;;;;;7.53;2.80;;;24.00;86.80;;;;;;5093097;28;20435;-70
2023/07/29 01:51:12;;;;;;;9.00;2.92;;;23.90;87.30;;;;;;5092084;28;20043;-70
2023/07/29 01:54:16;;;;;;;5.55;2.88;;;23.90;86.80;;;;;;5092395;28;20051;-70
2023/07/29 01:57:20;;;;;;;4.90;2.58;;;24.00;86.50;;;;;;5092890;28;20043;-70
2023/07/29 02:00:24;;;;;;;5.38;3.05;;;24.00;85.90;;;;;;5092091;28;20043;-70
2023/07/29 02:03:28;;;;;;;10.65;2.85;;;24.00;85.30;;;;;;5092081;28;20098;-70
2023/07/29 02:06:32;;;;;;;6.40;2.58;;;24.00;85.50;;;;;;5091643;28;20106;-70
2023/07/29 02:09:36;;;;;;;6.65;2.50;;;24.00;85.30;;;;;;5092220;28;20146;-70
2023/07/29 02:12:40;;;;;;;4.22;2.40;;;23.90;85.40;;;;;;5091776;28;20044;-70
2023/07/29 02:15:44;;;;;;;8.30;2.63;;;23.80;85.60;;;;;;5091638;28;20407;-70
2023/07/29 02:18:47;;;;;;;4.32;2.35;;;23.70;85.70;;;;;;5091586;28;20380;-70
2023/07/29 02:21:51;;;;;;;10.05;2.67;;;23.70;85.50;;;;;;5091488;28;20055;-70
2023/07/29 02:24:55;;;;;;;5.80;2.42;;;23.50;85.00;;;;;;5092205;28;20399;-70
2023/07/29 02:27:59;;;;;;;6.90;2.60;;;23.30;86.00;;;;;;5091563;28;20043;-70
2023/07/29 02:31:20;;;;;;;6.93;2.60;;;23.10;86.50;;;;;;5091619;28;20055;-70
2023/07/29 02:34:24;;;;;;;5.25;2.50;;;23.00;87.20;;;;;;5091365;28;20054;-70
2023/07/29 02:37:28;;;;;;;5.72;2.40;;;23.10;87.30;;;;;;5091244;28;20039;-70
2023/07/29 02:40:31;;;;;;;8.63;2.40;;;23.10;87.90;;;;;;5091113;28;20043;-70
2023/07/29 02:43:36;;;;;;;5.30;2.50;;;23.20;88.40;;;;;;5091183;28;20043;-70
2023/07/29 02:46:40;;;;;;;11.63;3.08;;;23.10;89.00;;;;;;5091294;28;20078;-70
2023/07/29 02:49:43;;;;;;;11.65;3.35;;;23.00;89.50;;;;;;5091147;28;20067;-70
2023/07/29 02:52:47;;;;;;;6.93;3.03;;;22.90;90.20;;;;;;5091014;28;20055;-70
2023/07/29 02:55:51;;;;;;;5.65;2.67;;;22.60;90.60;;;;;;5090864;28;20043;-70
2023/07/29 02:58:57;;;;;;;9.20;3.35;;;22.60;91.00;;;;;;5090843;28;20403;-70
2023/07/29 03:02:02;;;;;;;10.48;2.95;;;22.50;90.90;;;;;;5090570;28;20058;-70
2023/07/29 03:05:06;;;;;;;15.27;3.40;;;22.60;91.10;;;;;;5090791;28;20043;-70
2023/07/29 03:08:10;;;;;;;10.20;3.58;;;22.70;91.00;;;;;;5090913;28;20055;-69
2023/07/29 03:11:15;;;;;;;11.88;3.30;;;22.60;91.00;;;;;;5091587;28;20039;-70
2023/07/29 03:14:19;;;;;;;10.27;3.67;;;22.80;90.40;;;;;;5090562;28;20040;-70
2023/07/29 03:17:23;;;;;;;9.27;2.92;;;22.70;90.60;;;;;;5090734;28;20043;-70
2023/07/29 03:20:27;;;;;;;8.00;3.17;;;23.70;90.60;;;;;;5090507;28;20102;-70
2023/07/29 03:23:32;;;;;;;11.20;3.28;;;22.90;90.10;;;;;;5091717;28;20051;-70
2023/07/29 03:26:36;;;;;;;8.95;3.33;;;22.90;90.00;;;;;;5091716;28;20071;-70
2023/07/29 03:29:40;;;;;;;8.48;3.30;;;22.90;90.20;;;;;;5090414;28;20047;-70
2023/07/29 03:32:45;;;;;;;9.98;3.63;;;22.50;90.30;;;;;;5091201;28;20043;-70
2023/07/29 03:35:49;;;;;;;10.48;4.18;;;22.50;91.00;;;;;;5090158;28;20507;-70
2023/07/29 03:38:53;;;;;;;7.88;4.10;;;22.60;90.50;;;;;;5090163;28;20055;-69
2023/07/29 03:41:58;;;;;;;9.23;4.43;;;22.50;90.70;;;;;;5091010;28;20055;-70
2023/07/29 03:45:02;;;;;;;13.23;5.35;;;22.60;90.30;;;;;;5089965;28;20039;-70
2023/07/29 03:48:07;;;;;;;8.07;4.80;;;22.70;90.40;;;;;;5090391;28;20047;-70
2023/07/29 03:51:11;;;;;;;11.00;4.82;;;22.30;90.60;;;;;;5089927;28;20103;-70
2023/07/29 03:54:14;;;;;;;8.02;4.45;;;22.50;90.70;;;;;;5090211;28;20047;-70
2023/07/29 03:57:18;;;;;;;10.40;4.45;;;22.20;91.00;;;;;;5091176;28;20039;-70
2023/07/29 04:00:22;;;;;;;20.63;5.50;;;22.10;90.30;;;;;;5090952;28;20043;-70
2023/07/29 04:03:26;;;;;;;13.07;4.28;;;22.10;90.50;;;;;;5091473;28;20491;-70
2023/07/29 04:06:32;;;;;;;7.93;4.20;;;22.20;90.00;;;;;;5094515;28;20043;-70
2023/07/29 04:09:36;;;;;;;13.18;3.72;;;22.30;89.50;;;;;;5094385;28;20051;-70
2023/07/29 04:12:40;;;;;;;12.00;3.63;;;22.40;88.40;;;;;;5094225;28;20190;-70
2023/07/29 04:15:45;;;;;;;11.52;3.92;;;22.20;88.10;;;;;;5095128;28;20051;-69
2023/07/29 04:18:49;;;;;;;9.75;3.53;;;22.10;87.90;;;;;;5093848;28;20053;-69
2023/07/29 04:21:53;;;;;;;10.90;3.20;;;21.20;85.60;;;;;;5093833;28;20051;-70
2023/07/29 04:24:56;;;;;;;6.57;3.00;;;22.20;86.60;;;;;;5094709;28;20043;-70
2023/07/29 04:28:03;;;;;;;9.88;3.88;;;22.50;84.60;;;;;;5094513;28;20043;-69
2023/07/29 04:31:06;;;;;;;11.13;2.83;;;22.50;84.10;;;;;;5093618;28;20047;-69
2023/07/29 04:34:10;;;;;;;7.60;3.00;;;22.60;83.90;;;;;;5093685;28;20502;-70
2023/07/29 04:37:16;;;;;;;7.20;3.20;;;22.20;83.40;;;;;;5093405;28;20063;-69
2023/07/29 04:40:22;;;;;;;15.70;3.88;;;22.60;83.80;;;;;;5093465;28;20194;-70
2023/07/29 04:43:28;;;;;;;15.38;2.78;;;23.20;83.50;;;;;;5094641;28;20050;-70
2023/07/29 04:46:32;;;;;;;8.48;2.85;;;23.60;81.30;;;;;;5093766;28;20110;-70
2023/07/29 04:49:35;;;;;;;13.45;2.80;;;24.00;80.10;;;;;;5094532;28;20083;-70
2023/07/29 04:52:39;;;;;;;20.13;3.13;;;24.10;80.00;;;;;;5093848;28;20362;-70
2023/07/29 04:55:43;;;;;;;27.75;4.20;;;25.30;76.40;;;;;;5094173;28;20059;-70
2023/07/29 04:58:47;;;;;;;16.15;3.72;;;25.20;76.30;;;;;;5093498;28;20051;-70
2023/07/29 05:01:51;;;;;;;12.13;3.05;;;25.70;76.10;;;;;;5094069;28;20055;-70
2023/07/29 05:04:55;;;;;;;13.52;3.10;;;26.10;75.80;;;;;;5093937;28;20499;-70
2023/07/29 05:07:59;;;;;;;17.33;3.00;;;26.10;76.10;;;;;;5093893;28;20047;-70
2023/07/29 05:11:03;;;;;;;12.90;3.28;;;26.40;76.10;;;;;;5092977;28;20047;-70
2023/07/29 05:14:08;;;;;;;11.13;3.33;;;26.90;75.20;;;;;;5093317;28;20046;-70
2023/07/29 05:17:13;;;;;;;11.73;3.28;;;27.30;75.30;;;;;;5092936;28;20043;-70
2023/07/29 05:20:17;;;;;;;18.48;4.55;;;27.50;74.60;;;;;;5092762;28;20098;-70
2023/07/29 05:23:21;;;;;;;16.08;3.58;;;27.20;75.30;;;;;;5093762;28;20415;-70
2023/07/29 05:26:25;;;;;;;20.58;3.75;;;27.30;75.10;;;;;;5092806;28;20043;-70
2023/07/29 05:29:29;;;;;;;19.15;4.05;;;27.10;75.60;;;;;;5093392;28;20415;-70
2023/07/29 05:32:33;;;;;;;12.50;4.13;;;26.80;75.80;;;;;;5093351;28;20126;-70
2023/07/29 05:35:38;;;;;;;12.13;3.83;;;26.80;75.70;;;;;;5092359;28;20146;-70
2023/07/29 05:38:42;;;;;;;16.80;4.70;;;27.00;75.20;;;;;;5092559;28;20122;-73
2023/07/29 05:41:47;;;;;;;14.07;5.88;;;26.80;75.00;;;;;;5093578;28;20130;-73
2023/07/29 05:44:50;;;;;;;16.92;4.50;;;26.70;74.80;;;;;;5092707;28;20110;-73
2023/07/29 05:47:57;;;;;;;21.58;5.00;;;26.70;76.00;;;;;;5092490;28;20051;-73
2023/07/29 05:51:01;;;;;;;14.57;4.95;;;26.60;76.40;;;;;;5093392;28;20051;-79
2023/07/29 05:54:05;;;;;;;12.77;4.80;;;26.70;76.80;;;;;;5092735;28;20047;-82
2023/07/29 05:57:10;;;;;;;16.42;4.97;;;26.90;76.00;;;;;;5093160;28;20547;-81
2023/07/29 06:00:14;;;;;;;19.38;4.63;;;27.00;76.40;;;;;;5091931;28;20047;-77
2023/07/29 06:03:18;;;;;;;17.40;4.53;;;26.90;77.40;;;;;;5092955;28;20399;-78
2023/07/29 06:06:23;;;;;;;20.20;4.88;;;27.00;77.70;;;;;;5092073;28;20039;-78
2023/07/29 06:09:27;;;;;;;21.85;5.65;;;27.20;77.50;;;;;;5092701;28;20055;-76
2023/07/29 06:12:31;;;;;;;16.25;5.10;;;27.40;77.50;;;;;;5080173;28;20093;-76
2023/07/29 06:15:35;;;;;;;20.10;5.10;;;27.50;76.90;;;;;;5092809;28;20482;-77
2023/07/29 06:18:39;;;;;;;22.73;5.18;;;27.50;76.80;;;;;;5091806;28;20043;-76
2023/07/29 06:21:43;;;;;;;26.65;5.90;;;27.90;75.70;;;;;;5092289;28;20046;-76
2023/07/29 06:24:47;;;;;;;22.60;7.28;;;28.30;75.60;;;;;;5091013;28;20110;-75
2023/07/29 06:27:51;;;;;;;17.40;6.95;;;28.50;74.50;;;;;;5092033;28;20038;-76
2023/07/29 06:30:56;;;;;;;28.92;6.38;;;28.40;74.70;;;;;;5092500;28;20042;-77
2023/07/29 06:33:59;;;;;;;27.35;6.38;;;28.20;74.30;;;;;;5092204;28;20046;-68
2023/07/29 06:37:05;;;;;;;30.95;6.82;;;28.40;75.50;;;;;;5091910;28;20130;-67
2023/07/29 06:40:09;;;;;;;15.40;5.32;;;28.60;75.30;;;;;;5091309;28;20055;-72
2023/07/29 06:43:13;;;;;;;11.63;4.90;;;28.80;74.80;;;;;;5092132;28;20088;-70
2023/07/29 06:46:17;;;;;;;15.45;3.83;;;28.90;75.00;;;;;;5091781;28;20502;-71
2023/07/29 06:49:21;;;;;;;13.55;4.43;;;28.90;76.10;;;;;;5091914;28;20043;-69
2023/07/29 06:52:24;;;;;;;16.35;4.93;;;29.20;75.10;;;;;;5091686;28;20043;-69
2023/07/29 06:55:28;;;;;;;12.05;2.97;;;29.60;74.30;;;;;;5091932;28;20039;-68
2023/07/29 06:58:32;;;;;;;9.77;3.05;;;29.90;74.20;;;;;;5091812;28;20039;-69
2023/07/29 07:01:36;;;;;;;16.60;3.70;;;30.20;72.90;;;;;;5091404;28;20408;-71
2023/07/29 07:04:40;;;;;;;31.95;5.07;;;30.60;71.20;;;;;;5091773;28;20042;-68
2023/07/29 07:07:44;;;;;;;11.90;3.00;;;30.80;69.20;;;;;;5091692;28;20046;-71
2023/07/29 07:10:48;;;;;;;19.52;3.58;;;30.90;67.90;;;;;;5091355;28;20043;-69
2023/07/29 07:13:52;;;;;;;12.52;3.22;;;31.10;68.50;;;;;;5089503;28;20447;-69
2023/07/29 07:16:56;;;;;;;12.90;2.97;;;31.40;67.70;;;;;;5089504;28;20043;-69
2023/07/29 07:20:00;;;;;;;9.63;3.42;;;31.60;67.30;;;;;;5090818;28;20047;-69
2023/07/29 07:23:05;;;;;;;13.40;3.70;;;31.80;67.70;;;;;;5090880;28;20063;-69
2023/07/29 07:26:09;;;;;;;12.05;3.40;;;31.80;66.50;;;;;;5090532;28;20062;-69
2023/07/29 07:29:13;;;;;;;11.32;3.30;;;31.80;67.30;;;;;;5091411;28;20051;-69
2023/07/29 07:32:17;;;;;;;21.63;4.18;;;31.80;67.00;;;;;;5091190;28;20082;-70
2023/07/29 07:35:20;;;;;;;14.82;3.83;;;31.80;67.00;;;;;;5090761;28;20047;-70
2023/07/29 07:38:24;;;;;;;18.35;3.80;;;31.90;65.40;;;;;;5090475;28;20047;-70
2023/07/29 07:41:28;;;;;;;12.00;3.08;;;32.00;66.10;;;;;;5091141;28;20054;-71
2023/07/29 07:44:32;;;;;;;16.17;3.28;;;32.10;65.60;;;;;;5091010;28;20047;-70
2023/07/29 07:47:36;;;;;;;11.88;3.90;;;32.10;65.50;;;;;;5091132;28;20066;-70
2023/07/29 07:50:39;;;;;;;15.35;3.50;;;32.30;65.60;;;;;;5089975;28;20047;-71
2023/07/29 07:53:43;;;;;;;10.98;3.72;;;32.50;65.40;;;;;;5091089;28;20063;-70
2023/07/29 07:56:47;;;;;;;15.05;3.90;;;32.50;64.70;;;;;;5090914;28;20047;-69
2023/07/29 07:59:52;;;;;;;44.45;5.80;;;32.50;65.30;;;;;;5090885;28;20067;-70
2023/07/29 08:02:56;;;;;;;42.60;6.10;;;32.70;65.30;;;;;;5091071;28;20075;-70
2023/07/29 08:06:00;;;;;;;19.33;4.53;;;32.90;65.60;;;;;;5090666;28;20498;-69
2023/07/29 08:09:04;;;;;;;15.75;3.65;;;33.00;64.90;;;;;;5090841;28;20059;-69
2023/07/29 08:12:08;;;;;;;11.30;2.92;;;33.10;64.70;;;;;;5090724;28;20047;-70
2023/07/29 08:15:12;;;;;;;13.38;3.28;;;33.00;63.70;;;;;;5090471;28;20067;-70
2023/07/29 08:18:16;;;;;;;16.00;4.53;;;32.90;64.60;;;;;;5090552;28;20047;-69
2023/07/29 08:21:21;;;;;;;10.50;3.72;;;32.70;64.60;;;;;;5090680;28;20486;-69
2023/07/29 08:24:25;;;;;;;18.38;3.60;;;32.80;64.90;;;;;;5090220;28;20055;-68
2023/07/29 08:27:29;;;;;;;12.98;3.65;;;32.70;65.00;;;;;;5089635;28;20047;-69
2023/07/29 08:30:32;;;;;;;14.07;4.20;;;32.60;64.60;;;;;;5090613;28;20404;-69
2023/07/29 08:33:37;;;;;;;9.02;3.67;;;32.50;64.30;;;;;;5090062;28;20054;-69
2023/07/29 08:36:41;;;;;;;13.48;3.53;;;32.40;66.10;;;;;;5090186;28;20395;-70
2023/07/29 08:39:44;;;;;;;14.40;3.60;;;32.50;65.00;;;;;;5090498;28;20055;-69
2023/07/29 08:42:50;;;;;;;12.60;3.90;;;32.20;65.20;;;;;;5090219;28;20047;-69
2023/07/29 08:45:54;;;;;;;10.82;4.03;;;32.10;65.20;;;;;;5090362;28;20063;-68
2023/07/29 08:49:01;;;;;;;20.95;3.83;;;32.10;65.70;;;;;;5090495;28;20061;-68
2023/07/29 08:52:07;;;;;;;13.23;3.03;;;32.20;64.30;;;;;;5093051;28;20039;-69
2023/07/29 08:55:11;;;;;;;12.07;3.17;;;32.40;63.90;;;;;;5094488;28;20050;-69
2023/07/29 08:58:16;;;;;;;9.55;3.08;;;32.50;63.60;;;;;;5093893;28;20447;-68
2023/07/29 09:01:20;;;;;;;7.63;2.60;;;32.60;64.00;;;;;;5093929;28;20039;-69
2023/07/29 09:04:24;;;;;;;13.40;2.83;;;32.80;63.80;;;;;;5093897;28;20055;-67
2023/07/29 09:07:29;;;;;;;16.20;3.40;;;32.90;64.20;;;;;;5094030;28;20043;-69
2023/07/29 09:10:37;;;;;;;19.52;3.85;;;33.00;63.80;;;;;;5093659;28;20051;-68
2023/07/29 09:13:41;;;;;;;20.70;3.63;;;33.00;62.60;;;;;;5093919;28;20515;-68
2023/07/29 09:16:46;;;;;;;10.48;3.53;;;33.00;63.00;;;;;;5093933;28;20058;-68
2023/07/29 09:19:51;;;;;;;8.82;3.70;;;33.00;63.90;;;;;;5093481;28;20047;-68
2023/07/29 09:22:57;;;;;;;4.90;2.58;;;33.00;63.50;;;;;;5093557;28;20059;-68
2023/07/29 09:26:02;;;;;;;12.68;3.00;;;33.00;64.00;;;;;;5092977;28;20075;-69
2023/07/29 09:29:07;;;;;;;9.13;3.17;;;32.90;62.50;;;;;;5092558;28;20392;-69
2023/07/29 09:32:21;;;;;;;16.20;3.50;;;32.90;65.00;;;;;;5093394;28;20483;-69
2023/07/29 09:35:28;;;;;;;14.70;4.85;;;32.90;67.20;;;;;;5093032;28;20075;-69
2023/07/29 09:38:32;;;;;;;13.55;3.78;;;32.80;68.40;;;;;;5093813;28;20094;-69
2023/07/29 09:41:36;;;;;;;12.48;3.28;;;32.90;68.60;;;;;;5093271;28;20062;-68
2023/07/29 09:44:40;;;;;;;8.63;3.55;;;32.90;68.30;;;;;;5093482;28;20058;-68
2023/07/29 09:47:46;;;;;;;21.42;4.35;;;33.00;68.60;;;;;;5093018;28;20043;-69
2023/07/29 09:50:50;;;;;;;15.85;3.25;;;33.10;68.20;;;;;;5093155;28;20069;-68
2023/07/29 09:53:55;;;;;;;14.52;3.60;;;33.10;67.10;;;;;;5092643;28;20043;-68
2023/07/29 09:56:59;;;;;;;7.97;2.92;;;33.10;67.60;;;;;;5093074;28;20043;-68
2023/07/29 10:00:10;;;;;;;10.63;3.28;;;33.20;67.50;;;;;;5092958;28;20043;-68
2023/07/29 10:03:15;;;;;;;10.68;3.78;;;33.20;67.10;;;;;;5092472;28;20134;-68
2023/07/29 10:06:19;;;;;;;29.85;4.75;;;33.40;66.50;;;;;;5092424;28;20392;-68
2023/07/29 10:09:24;;;;;;;9.07;3.30;;;33.40;66.70;;;;;;5092422;28;20051;-69
2023/07/29 10:12:30;;;;;;;18.63;4.45;;;33.40;66.20;;;;;;5092527;28;20043;-68
2023/07/29 10:15:34;;;;;;;8.95;2.55;;;33.50;66.10;;;;;;5092781;28;20043;-68
2023/07/29 10:18:38;;;;;;;18.38;3.13;;;33.50;65.40;;;;;;5092634;28;20039;-69
2023/07/29 10:21:47;;;;;;;7.35;3.08;;;33.50;65.00;;;;;;5092243;28;20162;-69
2023/07/29 10:24:53;;;;;;;11.63;3.58;;;33.50;65.20;;;;;;5091999;28;20055;-68
2023/07/29 10:28:11;;;;;;;10.38;3.10;;;33.50;65.50;;;;;;5092466;28;20376;-68
2023/07/29 10:31:18;;;;;;;12.93;3.78;;;33.50;66.40;;;;;;5091330;28;20047;-70
2023/07/29 10:34:24;;;;;;;14.75;3.13;;;33.50;66.40;;;;;;5090915;28;20051;-70
2023/07/29 10:37:28;;;;;;;24.95;4.15;;;33.50;63.90;;;;;;5092291;28;20039;-70
2023/07/29 10:40:56;;;;;;;16.70;3.83;;;33.50;65.20;;;;;;5092174;28;20043;-69
2023/07/29 10:44:01;;;;;;;8.85;3.80;;;33.50;66.50;;;;;;5091854;28;20047;-69
2023/07/29 10:47:14;;;;;;;8.52;3.00;;;33.60;67.50;;;;;;5091962;28;20043;-69
2023/07/29 10:50:20;;;;;;;18.40;4.25;;;33.60;66.30;;;;;;5091866;28;20062;-69
2023/07/29 10:53:30;;;;;;;8.57;3.08;;;33.50;66.60;;;;;;5091331;28;20047;-72
2023/07/29 10:56:36;;;;;;;16.15;3.00;;;33.50;67.00;;;;;;5091598;28;20055;-71
2023/07/29 10:59:40;;;;;;;8.90;3.33;;;33.40;66.70;;;;;;5091597;28;20400;-70
2023/07/29 11:02:59;;;;;;;12.15;3.67;;;33.40;66.20;;;;;;5091391;28;20495;-71
2023/07/29 11:06:05;;;;;;;32.03;5.15;;;33.40;67.80;;;;;;5091424;28;20047;-70
2023/07/29 11:09:48;;;;;;;13.80;3.47;;;33.30;68.10;;;;;;5091682;28;20047;-71
2023/07/29 11:12:54;;;;;;;7.88;2.97;;;33.30;68.40;;;;;;5091503;28;20127;-71
2023/07/29 11:15:59;;;;;;;7.63;2.95;;;33.20;67.70;;;;;;5091561;28;20055;-70
2023/07/29 11:19:02;;;;;;;12.23;3.15;;;33.20;68.00;;;;;;5090721;28;20046;-71
2023/07/29 11:22:06;;;;;;;11.27;3.47;;;33.10;68.60;;;;;;5091317;28;20050;-71
2023/07/29 11:25:13;;;;;;;8.30;3.30;;;33.10;68.70;;;;;;5091314;28;20541;-72
2023/07/29 11:28:17;;;;;;;10.30;3.13;;;33.10;68.70;;;;;;5091582;28;20047;-71
2023/07/29 11:31:21;;;;;;;10.80;3.33;;;33.10;68.80;;;;;;5091000;28;20063;-71
2023/07/29 11:34:34;;;;;;;6.43;3.55;;;33.00;69.40;;;;;;5091264;28;20047;-72
2023/07/29 11:37:39;;;;;;;10.75;3.30;;;33.00;69.60;;;;;;5091080;28;20070;-72
2023/07/29 11:40:53;;;;;;;9.02;2.97;;;33.00;69.70;;;;;;5091229;28;20038;-71
2023/07/29 11:43:57;;;;;;;13.77;3.55;;;33.00;70.00;;;;;;5091032;28;20047;-72
2023/07/29 11:47:01;;;;;;;10.50;3.33;;;33.00;69.90;;;;;;5091051;28;20206;-71
2023/07/29 11:50:09;;;;;;;6.03;2.83;;;33.00;69.60;;;;;;5090845;28;20134;-71
2023/07/29 11:53:12;;;;;;;13.35;3.78;;;32.90;70.00;;;;;;5091098;28;20051;-71
2023/07/29 11:56:17;;;;;;;14.65;3.10;;;32.90;69.50;;;;;;5090748;28;20043;-70
2023/07/29 11:59:21;;;;;;;10.85;3.20;;;32.90;69.20;;;;;;5091180;28;20051;-71
2023/07/29 12:02:25;;;;;;;14.30;3.40;;;32.90;70.00;;;;;;5090991;28;20051;-71
2023/07/29 12:05:30;;;;;;;20.10;8.43;;;34.30;68.20;;;;;;5090816;28;20047;-71
2023/07/29 12:08:34;;;;;;;11.45;3.92;;;35.70;65.10;;;;;;5091052;28;20047;-69
2023/07/29 12:11:39;;;;;;;20.00;4.38;;;36.80;64.30;;;;;;5090597;28;20039;-69
2023/07/29 12:14:46;;;;;;;20.08;3.78;;;37.30;62.60;;;;;;5091054;28;20054;-71
2023/07/29 12:17:54;;;;;;;15.57;3.50;;;37.30;62.40;;;;;;5091044;28;20047;-71
2023/07/29 12:20:59;;;;;;;11.18;3.65;;;36.60;63.00;;;;;;5090462;28;20051;-71
2023/07/29 12:24:03;;;;;;;10.38;3.22;;;36.40;62.80;;;;;;5091343;28;20071;-70
2023/07/29 12:27:12;;;;;;;14.23;3.80;;;36.40;62.80;;;;;;5094754;28;20054;-70
2023/07/29 12:30:20;;;;;;;19.58;7.75;;;36.80;62.80;;;;;;5094790;28;20042;-71
2023/07/29 12:33:41;;;;;;;12.07;3.92;;;36.60;61.80;;;;;;5095277;28;20058;-71
2023/07/29 12:36:48;;;;;;;17.80;4.10;;;36.50;61.50;;;;;;5093771;28;20047;-71
2023/07/29 12:39:52;;;;;;;27.10;4.35;;;36.30;61.60;;;;;;5094607;28;20043;-71
2023/07/29 12:42:56;;;;;;;15.88;3.63;;;36.10;61.70;;;;;;5094375;28;20067;-70
2023/07/29 12:46:00;;;;;;;9.02;3.30;;;35.90;62.20;;;;;;5094570;28;20046;-70
2023/07/29 12:49:04;;;;;;;7.70;3.45;;;35.70;62.30;;;;;;5094251;28;20406;-70
2023/07/29 12:52:09;;;;;;;12.00;3.85;;;35.70;62.50;;;;;;5094372;28;20494;-70
2023/07/29 12:55:13;;;;;;;11.48;3.33;;;35.80;62.30;;;;;;5094728;28;20051;-76
2023/07/29 12:58:17;;;;;;;15.85;4.00;;;35.80;62.20;;;;;;5095853;28;20043;-76
2023/07/29 13:01:21;;;;;;;16.45;3.83;;;35.80;61.20;;;;;;5095891;28;20043;-75
2023/07/29 13:04:24;;;;;;;17.75;3.28;;;36.00;62.40;;;;;;5094816;28;20399;-69
2023/07/29 13:07:28;;;;;;;16.10;3.17;;;35.80;61.70;;;;;;5093508;28;20035;-70
2023/07/29 13:10:32;;;;;;;12.93;3.17;;;35.30;62.30;;;;;;5094089;28;20051;-69
2023/07/29 13:13:36;;;;;;;9.98;2.55;;;34.80;62.90;;;;;;5094230;28;20047;-70
2023/07/29 13:16:40;;;;;;;8.57;2.90;;;34.40;63.40;;;;;;5093941;28;20051;-69
2023/07/29 13:19:44;;;;;;;14.20;2.80;;;34.20;64.30;;;;;;5093891;28;20415;-70
2023/07/29 13:22:48;;;;;;;8.25;2.85;;;33.90;63.90;;;;;;5094251;28;20058;-70
2023/07/29 13:25:52;;;;;;;7.63;2.83;;;33.70;64.40;;;;;;5093901;28;20051;-70
2023/07/29 13:28:56;;;;;;;8.52;2.78;;;33.50;65.00;;;;;;5094848;28;20054;-71
2023/07/29 13:32:00;;;;;;;25.83;4.78;;;33.40;65.10;;;;;;5094071;28;20066;-72
2023/07/29 13:35:04;;;;;;;8.82;3.03;;;33.30;65.60;;;;;;5093107;28;20046;-69
2023/07/29 13:38:08;;;;;;;13.40;2.70;;;33.20;65.10;;;;;;5093865;28;20047;-71
2023/07/29 13:41:12;;;;;;;21.75;3.72;;;33.20;65.00;;;;;;5093390;28;20126;-69
2023/07/29 13:44:16;;;;;;;8.07;3.38;;;33.20;64.80;;;;;;5093598;28;20051;-69
2023/07/29 13:47:20;;;;;;;8.18;3.20;;;33.10;65.00;;;;;;5093225;28;20039;-70
2023/07/29 13:50:24;;;;;;;10.88;2.60;;;33.00;64.30;;;;;;5093494;28;20066;-68
2023/07/29 13:53:28;;;;;;;16.13;3.08;;;33.00;64.30;;;;;;5092168;28;20450;-70
2023/07/29 13:56:32;;;;;;;12.25;3.10;;;32.90;63.90;;;;;;5094223;28;20063;-71
2023/07/29 13:59:39;;;;;;;12.30;2.65;;;33.10;64.70;;;;;;5093215;28;20047;-69
2023/07/29 14:02:43;;;;;;;23.80;3.67;;;33.90;63.30;;;;;;5093119;28;20047;-71
2023/07/29 14:05:47;;;;;;;9.10;2.70;;;35.00;60.70;;;;;;5092981;28;20043;-68
2023/07/29 14:08:51;;;;;;;14.60;2.88;;;35.20;60.80;;;;;;5093270;28;20043;-69
2023/07/29 14:11:55;;;;;;;19.40;3.55;;;35.40;60.20;;;;;;5093472;28;20044;-76
2023/07/29 14:14:59;;;;;;;4.15;2.55;;;35.50;59.60;;;;;;5093668;28;20047;-76
2023/07/29 14:18:04;;;;;;;7.70;2.47;;;35.70;59.20;;;;;;5095203;28;20047;-76
2023/07/29 14:21:08;;;;;;;6.15;2.50;;;35.50;59.30;;;;;;5092946;28;20043;-71
2023/07/29 14:24:12;;;;;;;12.55;2.75;;;35.60;59.70;;;;;;5092830;28;20051;-72
2023/07/29 14:27:16;;;;;;;24.70;4.22;;;35.80;59.20;;;;;;5092790;28;20050;-72
2023/07/29 14:30:21;;;;;;;16.90;3.58;;;36.00;58.90;;;;;;5092516;28;20039;-71
2023/07/29 14:33:25;;;;;;;9.43;3.10;;;36.40;58.40;;;;;;5092393;28;20050;-73
2023/07/29 14:36:29;;;;;;;15.82;3.00;;;36.90;57.50;;;;;;5090563;28;20107;-70
2023/07/29 14:39:33;;;;;;;8.25;3.15;;;37.20;57.30;;;;;;5090416;28;20392;-72
2023/07/29 14:42:36;;;;;;;13.23;2.63;;;37.50;57.00;;;;;;5090479;28;20047;-73
2023/07/29 14:45:40;;;;;;;12.25;2.83;;;37.30;57.20;;;;;;5090247;28;20058;-72
2023/07/29 14:48:46;;;;;;;12.82;2.95;;;37.00;57.30;;;;;;5090597;28;20051;-71
2023/07/29 14:51:50;;;;;;;10.48;2.90;;;36.60;58.00;;;;;;5092147;28;20396;-72
2023/07/29 14:54:54;;;;;;;13.00;2.95;;;36.60;58.20;;;;;;5092765;28;20395;-71
2023/07/29 14:57:58;;;;;;;20.00;4.10;;;36.20;58.30;;;;;;5091860;28;20051;-73
2023/07/29 15:01:02;;;;;;;16.90;3.58;;;36.00;58.80;;;;;;5091932;28;20047;-71
2023/07/29 15:04:06;;;;;;;10.93;2.90;;;36.00;59.00;;;;;;5091580;28;20506;-72
2023/07/29 15:07:10;;;;;;;20.55;3.08;;;36.00;58.70;;;;;;5092151;28;20051;-78
2023/07/29 15:10:18;;;;;;;15.27;3.10;;;35.90;59.40;;;;;;5090434;28;20062;-69
2023/07/29 15:13:21;;;;;;;15.48;2.63;;;35.60;59.90;;;;;;5090945;28;20043;-69
2023/07/29 15:16:26;;;;;;;10.18;2.72;;;34.80;60.70;;;;;;5091103;28;20047;-70
2023/07/29 15:19:30;;;;;;;10.68;2.50;;;34.30;61.30;;;;;;5090707;28;20106;-70
2023/07/29 15:22:34;;;;;;;9.27;2.53;;;33.80;61.90;;;;;;5091564;28;20052;-70
2023/07/29 15:25:38;;;;;;;5.05;2.45;;;33.50;62.30;;;;;;5091006;28;20059;-69
2023/07/29 15:28:42;;;;;;;9.93;2.45;;;33.30;63.20;;;;;;5079101;28;20039;-69
2023/07/29 15:31:46;;;;;;;18.17;3.33;;;33.20;63.00;;;;;;5091251;28;20043;-69
2023/07/29 15:34:50;;;;;;;20.45;3.47;;;33.10;63.20;;;;;;5091210;28;20093;-70
2023/07/29 15:37:54;;;;;;;15.50;3.50;;;33.00;63.40;;;;;;5091187;28;20051;-69
2023/07/29 15:40:59;;;;;;;28.02;3.22;;;32.90;63.80;;;;;;5091113;28;20069;-69
2023/07/29 15:44:03;;;;;;;28.25;3.53;;;32.80;63.90;;;;;;5090693;28;20133;-69
2023/07/29 15:47:07;;;;;;;16.55;3.05;;;32.60;64.20;;;;;;5091257;28;20043;-69
2023/07/29 15:50:10;;;;;;;5.88;2.50;;;32.60;64.40;;;;;;5091353;28;20043;-69
2023/07/29 15:53:14;;;;;;;9.77;3.05;;;32.60;64.50;;;;;;5091142;28;20051;-70
2023/07/29 15:56:18;;;;;;;17.73;3.10;;;32.60;64.70;;;;;;5091281;28;20051;-68